Messwerte Futenma Marine Corps Air Facility

Temperatur

Temperatur
°C
1614502800 18.00 18.00 21
1614506400 19.00 19.00 21
1614510000 20.00 20.00 21
1614513600 21.00 21.00
1614517200 22.00 22.00 21
1614520800 23.00 23.00 21
1614524400 0.00 0.00 20
1614528000 1.00 1.00 20
1614531600 2.00 2.00 21
1614535200 3.00 3.00
1614538800 4.00 4.00 20
1614542400 5.00 5.00 21
1614546000 6.00 6.00 20
1614549600 7.00 7.00 21
1614553200 8.00 8.00
1614556800 9.00 9.00
1614560400 10.00 10.00 22
1614564000 11.00 11.00 23
1614567600 12.00 12.00 23
1614571200 13.00 13.00 23
1614574800 14.00 14.00 24
1614578400 15.00 15.00 23
1614582000 16.00 16.00 22
1614585600 17.00 17.00 22

Aktuellste Messwerte

Wettercharakter
Wetter: wechselnd bewölkt
Temperatur
22 °C
Feuchtigkeit
65 %
Wind
5 km/hWindrichtung: Ost
Luftdruck
1015 hPa
Messzeit: 1. März 2021, 18.00Datenquelle: METAR

Weitere Messstationen in der Nähe

Messstation Temperatur Entfernung
Okinawa - Kadena - 9 km
Naha 22 °C 13 km
Miyakojima 22 °C 297 km
Shimojishima 22 °C 306 km
Amami 21 °C 309 km
Minamidaitojim 22 °C 351 km
Ishigakijima 23 °C 419 km

Wind

Windrichtung Böen Mittelwind
° km/h km/h
1614502800 18.00 17.00 - 18.00 80° 25
1614506400 19.00 18.00 - 19.00 80° 25
1614510000 20.00 19.00 - 20.00 80° 20
1614513600 21.00 20.00 - 21.00
1614517200 22.00 21.00 - 22.00 80° 20
1614520800 23.00 22.00 - 23.00 80° 25
1614524400 0.00 23.00 - 0.00 80° 25
1614528000 1.00 0.00 - 1.00 90° 20
1614531600 2.00 1.00 - 2.00 160° 20
1614535200 3.00 2.00 - 3.00
1614538800 4.00 3.00 - 4.00 90° 20
1614542400 5.00 4.00 - 5.00 90° 15
1614546000 6.00 5.00 - 6.00 90° 15
1614549600 7.00 6.00 - 7.00 100° 15
1614553200 8.00 7.00 - 8.00
1614556800 9.00 8.00 - 9.00
1614560400 10.00 9.00 - 10.00 130° 15
1614564000 11.00 10.00 - 11.00 120° 20
1614567600 12.00 11.00 - 12.00 120° 20
1614571200 13.00 12.00 - 13.00 120° 15
1614574800 14.00 13.00 - 14.00 120° 10
1614578400 15.00 14.00 - 15.00 130° 15
1614582000 16.00 15.00 - 16.00 120° 10
1614585600 17.00 16.00 - 17.00 120° 10

Ihre Wetterstation

Fehlt Ihre Wetterstation auf unserem Portal?

Schreiben Sie an network@meteonews.ch

Klima

Wann ist es am wärmsten? Wann regnet es am wenigsten? Unsere Klimadaten geben Auskunft.